Charm, Ohio
Current Conditions -  °F | °C
As of 6:53 AM on Sunday 23 Nov 2014 (Local Time) from KPHD Reporting Station
Overcast Overcast  
Wind Chill: 44°   Ceiling: 7000
Heat Index: 46°   Visibility: 10mi
Dew Point: 32°   Wind: 5mph
Humidity: 58%   Direction: 140°SE
Pressure: 30.07"   Gusts: NA
Location:  40.51°N, 81.78°W
Report Text: KPHD 231153Z AUTO 14004KT 10SM OVC070 08/00 A3007 RMK AO2 RAB11E25 SLP188 P0000 60001 70010 T00780000 10094 20061 58001
Loading
Personal Weather Stations






























Interactive Weather Map New forecast layout! Learn more

10-Day Weather Forecast

Advertisements
Track Severe Weather on mobile